createdAt,value
2023-05-10T00:01:13.517Z,100364.97
2023-05-10T00:03:41.512Z,100369.66
2023-05-10T00:06:08.885Z,100370.72
2023-05-10T00:08:36.001Z,100363.78
2023-05-10T00:11:03.341Z,100363.78
2023-05-10T00:13:30.765Z,100368.94
2023-05-10T00:15:58.232Z,100365.78
2023-05-10T00:18:25.729Z,100365.22
2023-05-10T00:20:53.186Z,100371.22
2023-05-10T00:23:20.500Z,100362.09
2023-05-10T00:25:48.042Z,100361.63
2023-05-10T00:28:15.396Z,100370.25
2023-05-10T00:30:42.629Z,100358.50
2023-05-10T00:33:10.156Z,100369.91
2023-05-10T00:35:37.401Z,100357.53
2023-05-10T00:38:04.765Z,100352.87
2023-05-10T00:40:32.234Z,100355.00
2023-05-10T00:43:01.553Z,100348.06
2023-05-10T00:45:28.706Z,100349.88
2023-05-10T00:47:57.851Z,100354.78
2023-05-10T00:50:25.180Z,100366.66
2023-05-10T00:52:52.565Z,100357.53
2023-05-10T00:55:20.098Z,100354.41
2023-05-10T00:57:47.309Z,100352.75
2023-05-10T01:00:19.079Z,100347.22
2023-05-10T01:02:47.563Z,100358.47
2023-05-10T01:05:15.036Z,100352.63
2023-05-10T01:07:42.249Z,100352.34
2023-05-10T01:10:11.609Z,100351.78
2023-05-10T01:12:41.347Z,100348.66
2023-05-10T01:15:09.496Z,100344.78
2023-05-10T01:17:39.254Z,100347.34
2023-05-10T01:20:09.337Z,100350.94
2023-05-10T01:22:59.678Z,100345.19
2023-05-10T01:25:32.778Z,100339.78
2023-05-10T01:28:26.186Z,100353.19
2023-05-10T01:31:08.699Z,100341.97
2023-05-10T01:33:48.877Z,100348.66
2023-05-10T01:36:34.390Z,100345.31
2023-05-10T01:39:23.676Z,100340.25
2023-05-10T01:42:11.363Z,100341.22
2023-05-10T01:44:42.346Z,100343.28
2023-05-10T01:47:12.852Z,100348.53
2023-05-10T01:49:51.256Z,100341.94
2023-05-10T01:52:21.254Z,100345.31
2023-05-10T01:54:57.267Z,100342.53
2023-05-10T01:57:27.275Z,100340.97
2023-05-10T01:59:55.434Z,100338.91
2023-05-10T02:02:24.050Z,100333.78
2023-05-10T02:04:52.677Z,100337.03
2023-05-10T02:07:20.297Z,100325.63
2023-05-10T02:09:49.084Z,100322.13
2023-05-10T02:12:17.468Z,100325.97
2023-05-10T02:14:45.476Z,100318.16
2023-05-10T02:17:13.432Z,100316.84
2023-05-10T02:19:41.951Z,100325.13
2023-05-10T02:22:10.596Z,100310.25
2023-05-10T02:24:38.492Z,100312.69
2023-05-10T02:27:06.238Z,100317.47
2023-05-10T02:29:33.860Z,100314.56
2023-05-10T02:32:01.691Z,100306.62
2023-05-10T02:34:29.673Z,100307.34
2023-05-10T02:36:57.452Z,100313.38
2023-05-10T02:39:26.005Z,100313.38
2023-05-10T02:41:54.659Z,100317.56
2023-05-10T02:44:23.633Z,100316.62
2023-05-10T02:46:51.195Z,100319.63
2023-05-10T02:49:20.005Z,100318.66
2023-05-10T02:52:02.169Z,100314.00
2023-05-10T02:54:32.776Z,100319.16
2023-05-10T02:57:02.433Z,100319.16
2023-05-10T02:59:30.000Z,100313.16
2023-05-10T03:01:57.216Z,100311.47
2023-05-10T03:04:24.449Z,100316.28
2023-05-10T03:06:53.197Z,100310.88
2023-05-10T03:09:20.972Z,100311.72
2023-05-10T03:12:13.093Z,100309.31
2023-05-10T03:14:50.733Z,100309.69
2023-05-10T03:17:22.227Z,100305.47
2023-05-10T03:19:57.873Z,100306.91
2023-05-10T03:23:06.130Z,100307.41
2023-05-10T03:25:33.651Z,100305.72
2023-05-10T03:28:03.505Z,100302.25
2023-05-10T03:30:31.788Z,100304.75
2023-05-10T03:32:59.621Z,100309.91
2023-05-10T03:35:26.880Z,100309.56
2023-05-10T03:37:54.065Z,100305.37
2023-05-10T03:40:21.448Z,100313.38
2023-05-10T03:42:48.818Z,100309.69
2023-05-10T03:45:16.598Z,100314.47
2023-05-10T03:47:44.073Z,100309.28
2023-05-10T03:50:11.501Z,100310.38
2023-05-10T03:52:40.226Z,100308.72
2023-05-10T03:55:08.698Z,100303.44
2023-05-10T03:57:36.478Z,100308.59
2023-05-10T04:00:04.791Z,100305.94
2023-05-10T04:02:41.768Z,100306.91
2023-05-10T04:05:10.043Z,100304.84
2023-05-10T04:07:37.243Z,100307.63
2023-05-10T04:10:05.224Z,100310.97
2023-05-10T04:12:32.607Z,100315.31
2023-05-10T04:14:59.758Z,100305.59
2023-05-10T04:17:26.892Z,100299.09
2023-05-10T04:19:55.837Z,100309.75
2023-05-10T04:22:22.985Z,100313.03
2023-05-10T04:24:50.363Z,100309.78
2023-05-10T04:27:17.928Z,100315.97
2023-05-10T04:29:45.036Z,100315.09
2023-05-10T04:32:12.262Z,100318.09
2023-05-10T04:34:39.680Z,100328.50
2023-05-10T04:37:07.448Z,100328.53
2023-05-10T04:39:34.717Z,100323.78
2023-05-10T04:42:03.972Z,100328.44
2023-05-10T04:44:31.791Z,100325.41
2023-05-10T04:46:59.106Z,100331.22
2023-05-10T04:49:26.575Z,100332.97
2023-05-10T04:51:53.729Z,100323.28
2023-05-10T04:54:21.101Z,100324.75
2023-05-10T04:56:48.519Z,100316.66
2023-05-10T04:59:15.871Z,100319.75
2023-05-10T05:01:43.046Z,100323.72
2023-05-10T05:04:10.677Z,100324.44
2023-05-10T05:06:37.785Z,100322.69
2023-05-10T05:09:04.941Z,100330.62
2023-05-10T05:11:32.351Z,100333.53
2023-05-10T05:14:00.325Z,100329.53
2023-05-10T05:16:27.870Z,100324.16
2023-05-10T05:18:55.618Z,100330.03
2023-05-10T05:21:23.372Z,100341.09
2023-05-10T05:23:51.293Z,100324.53
2023-05-10T05:26:18.818Z,100339.25
2023-05-10T05:28:45.994Z,100348.06
2023-05-10T05:31:13.249Z,100354.88
2023-05-10T05:33:40.931Z,100356.56
2023-05-10T05:36:08.461Z,100351.00
2023-05-10T05:38:35.667Z,100349.94
2023-05-10T05:41:03.692Z,100354.22
2023-05-10T05:43:31.049Z,100360.09
2023-05-10T05:45:59.151Z,100365.22
2023-05-10T05:48:26.857Z,100365.03
2023-05-10T05:50:57.802Z,100366.50
2023-05-10T05:53:26.779Z,100361.12
2023-05-10T05:55:55.353Z,100357.41
2023-05-10T05:58:23.667Z,100372.13
2023-05-10T06:00:52.115Z,100371.53
2023-05-10T06:03:20.081Z,100373.19
2023-05-10T06:05:47.640Z,100377.97
2023-05-10T06:08:15.054Z,100387.84
2023-05-10T06:10:42.608Z,100376.03
2023-05-10T06:13:09.886Z,100380.06
2023-05-10T06:15:37.126Z,100384.91
2023-05-10T06:18:04.744Z,100374.09
2023-05-10T06:20:32.698Z,100386.84
2023-05-10T06:22:59.993Z,100388.19
2023-05-10T06:25:27.621Z,100392.53
2023-05-10T06:27:58.528Z,100399.47
2023-05-10T06:30:29.924Z,100382.56
2023-05-10T06:32:58.141Z,100389.09
2023-05-10T06:35:25.632Z,100379.50
2023-05-10T06:37:52.938Z,100387.94
2023-05-10T06:40:20.754Z,100388.56
2023-05-10T06:42:48.605Z,100395.63
2023-05-10T06:45:16.889Z,100385.91
2023-05-10T06:47:44.730Z,100387.28
2023-05-10T06:50:15.035Z,100385.28
2023-05-10T06:52:42.404Z,100389.47
2023-05-10T06:55:10.630Z,100386.31
2023-05-10T06:57:37.827Z,100398.34
2023-05-10T07:00:05.961Z,100381.19
2023-05-10T07:02:33.818Z,100371.84
2023-05-10T07:05:02.760Z,100375.06
2023-05-10T07:07:30.896Z,100370.94
2023-05-10T07:09:58.907Z,100377.50
2023-05-10T07:12:26.456Z,100385.91
2023-05-10T07:14:53.928Z,100377.25
2023-05-10T07:17:21.642Z,100371.56
2023-05-10T07:19:48.852Z,100368.78
2023-05-10T07:22:17.689Z,100372.37
2023-05-10T07:24:45.429Z,100368.03
2023-05-10T07:27:13.941Z,100368.56
2023-05-10T07:29:41.098Z,100366.50
2023-05-10T07:32:09.029Z,100374.81
2023-05-10T07:34:36.328Z,100367.06
2023-05-10T07:37:03.602Z,100369.91
2023-05-10T07:39:31.048Z,100362.16
2023-05-10T07:41:58.263Z,100359.09
2023-05-10T07:44:25.435Z,100367.13
2023-05-10T07:46:53.238Z,100363.19
2023-05-10T07:49:20.584Z,100368.19
2023-05-10T07:51:47.786Z,100364.06
2023-05-10T07:54:15.305Z,100366.59
2023-05-10T07:56:46.634Z,100368.03
2023-05-10T07:59:18.093Z,100372.91
2023-05-10T08:01:46.053Z,100379.00
2023-05-10T08:04:13.904Z,100376.88
2023-05-10T08:06:41.682Z,100375.63
2023-05-10T08:09:09.630Z,100375.84
2023-05-10T08:11:37.173Z,100362.28
2023-05-10T08:14:04.674Z,100366.81
2023-05-10T08:16:32.079Z,100373.69
2023-05-10T08:18:59.694Z,100356.03
2023-05-10T08:21:27.331Z,100364.38
2023-05-10T08:23:54.630Z,100376.59
2023-05-10T08:26:22.838Z,100365.09
2023-05-10T08:28:50.142Z,100365.34
2023-05-10T08:31:17.630Z,100348.59
2023-05-10T08:33:45.684Z,100364.88
2023-05-10T08:36:15.265Z,100366.06
2023-05-10T08:38:42.788Z,100361.00
2023-05-10T08:41:11.357Z,100347.88
2023-05-10T08:43:38.774Z,100348.00
2023-05-10T08:46:06.605Z,100351.78
2023-05-10T08:48:35.806Z,100344.94
2023-05-10T08:51:04.353Z,100358.56
2023-05-10T08:53:32.893Z,100357.72
2023-05-10T08:56:00.464Z,100358.13
2023-05-10T08:58:27.698Z,100346.47
2023-05-10T09:00:55.102Z,100348.13
2023-05-10T09:03:22.866Z,100353.16
2023-05-10T09:05:50.683Z,100351.19
2023-05-10T09:08:18.714Z,100350.59
2023-05-10T09:10:48.625Z,100348.44
2023-05-10T09:13:16.744Z,100341.34
2023-05-10T09:15:45.745Z,100340.81
2023-05-10T09:18:13.690Z,100345.06
2023-05-10T09:20:41.584Z,100349.13
2023-05-10T09:23:09.176Z,100328.84
2023-05-10T09:25:37.388Z,100346.28
2023-05-10T09:28:07.557Z,100345.91
2023-05-10T09:30:34.796Z,100339.78
2023-05-10T09:33:03.014Z,100337.38
2023-05-10T09:35:32.488Z,100339.03
2023-05-10T09:38:05.357Z,100332.28
2023-05-10T09:40:33.148Z,100333.03
2023-05-10T09:43:01.471Z,100340.34
2023-05-10T09:45:31.193Z,100336.31
2023-05-10T09:48:00.292Z,100345.91
2023-05-10T09:50:27.930Z,100330.84
2023-05-10T09:52:55.961Z,100331.38
2023-05-10T09:55:25.697Z,100323.25
2023-05-10T09:58:03.341Z,100322.72
2023-05-10T10:00:36.507Z,100320.84
2023-05-10T10:03:04.838Z,100320.06
2023-05-10T10:05:36.335Z,100325.16
2023-05-10T10:08:05.792Z,100326.31
2023-05-10T10:10:34.590Z,100315.37
2023-05-10T10:13:02.707Z,100309.69
2023-05-10T10:15:30.442Z,100307.41
2023-05-10T10:17:57.893Z,100305.03
2023-05-10T10:20:26.231Z,100309.53
2023-05-10T10:22:54.634Z,100308.72
2023-05-10T10:25:25.585Z,100306.75
2023-05-10T10:27:53.082Z,100307.06
2023-05-10T10:30:47.243Z,100310.19
2023-05-10T10:33:37.887Z,100299.81
2023-05-10T10:36:05.981Z,100302.81
2023-05-10T10:38:48.442Z,100296.22
2023-05-10T10:41:54.985Z,100290.47
2023-05-10T10:44:30.491Z,100289.09
2023-05-10T10:47:09.407Z,100285.84
2023-05-10T10:49:46.068Z,100289.47
2023-05-10T10:52:18.964Z,100285.50
2023-05-10T10:55:00.884Z,100280.56
2023-05-10T10:57:31.196Z,100276.75
2023-05-10T11:00:23.427Z,100282.75
2023-05-10T11:02:53.997Z,100276.69
2023-05-10T11:05:24.478Z,100267.47
2023-05-10T11:07:57.572Z,100267.59
2023-05-10T11:10:26.003Z,100267.09
2023-05-10T11:13:32.955Z,100267.91
2023-05-10T11:16:10.776Z,100248.72
2023-05-10T11:18:39.033Z,100258.41
2023-05-10T11:21:06.492Z,100256.72
2023-05-10T11:23:49.701Z,100255.66
2023-05-10T11:26:17.913Z,100254.91
2023-05-10T11:28:46.547Z,100244.94
2023-05-10T11:31:16.075Z,100248.06
2023-05-10T11:33:48.755Z,100253.44
2023-05-10T11:36:21.818Z,100248.59
2023-05-10T11:38:49.727Z,100243.25
2023-05-10T11:41:18.911Z,100236.56
2023-05-10T11:43:51.802Z,100241.94
2023-05-10T11:46:22.666Z,100231.41
2023-05-10T11:48:52.339Z,100239.25
2023-05-10T11:51:24.673Z,100237.03
2023-05-10T11:53:54.499Z,100239.91
2023-05-10T11:56:22.241Z,100238.53
2023-05-10T11:58:57.215Z,100229.47
2023-05-10T12:01:25.945Z,100231.84
2023-05-10T12:03:55.319Z,100236.50
2023-05-10T12:06:23.295Z,100239.38
2023-05-10T12:08:56.532Z,100241.63
2023-05-10T12:11:28.731Z,100242.47
2023-05-10T12:13:57.732Z,100244.03
2023-05-10T12:16:27.176Z,100233.16
2023-05-10T12:18:58.135Z,100238.22
2023-05-10T12:21:26.482Z,100234.38
2023-05-10T12:23:56.631Z,100229.56
2023-05-10T12:26:25.596Z,100224.63
2023-05-10T12:31:59.979Z,100232.81
2023-05-10T12:34:31.437Z,100230.19
2023-05-10T12:36:59.355Z,100212.09
2023-05-10T12:39:26.626Z,100207.38
2023-05-10T12:41:54.172Z,100205.38
2023-05-10T12:44:21.945Z,100218.16
2023-05-10T12:46:49.168Z,100212.84
2023-05-10T12:49:17.805Z,100214.44
2023-05-10T12:51:45.098Z,100202.34
2023-05-10T12:54:12.646Z,100212.03
2023-05-10T12:56:41.965Z,100200.19
2023-05-10T12:59:09.276Z,100190.97
2023-05-10T13:01:36.564Z,100189.25
2023-05-10T13:04:04.224Z,100193.63
2023-05-10T13:06:31.857Z,100192.00
2023-05-10T13:08:59.104Z,100199.59
2023-05-10T13:11:26.530Z,100188.63
2023-05-10T13:13:53.785Z,100180.94
2023-05-10T13:16:21.065Z,100180.38
2023-05-10T13:18:48.491Z,100175.00
2023-05-10T13:21:15.792Z,100172.28
2023-05-10T13:23:42.895Z,100171.03
2023-05-10T13:26:10.670Z,100177.06
2023-05-10T13:28:39.802Z,100169.47
2023-05-10T13:31:07.149Z,100161.47
2023-05-10T13:33:34.713Z,100147.41
2023-05-10T13:36:02.019Z,100152.41
2023-05-10T13:38:29.217Z,100151.63
2023-05-10T13:40:56.858Z,100151.91
2023-05-10T13:43:25.058Z,100141.16
2023-05-10T13:45:53.317Z,100155.00
2023-05-10T13:48:20.746Z,100149.88
2023-05-10T13:50:48.170Z,100143.59
2023-05-10T13:53:15.667Z,100135.16
2023-05-10T13:55:43.376Z,100141.56
2023-05-10T13:58:10.625Z,100136.94
2023-05-10T14:00:37.948Z,100145.25
2023-05-10T14:03:06.397Z,100143.72
2023-05-10T14:05:35.789Z,100151.03
2023-05-10T14:08:04.823Z,100134.75
2023-05-10T14:10:32.502Z,100123.81
2023-05-10T14:13:00.229Z,100128.84
2023-05-10T14:15:27.504Z,100123.59
2023-05-10T14:17:55.156Z,100122.66
2023-05-10T14:20:22.570Z,100123.41
2023-05-10T14:22:49.785Z,100121.00
2023-05-10T14:25:17.795Z,100114.16
2023-05-10T14:27:45.257Z,100121.84
2023-05-10T14:30:13.088Z,100111.06
2023-05-10T14:32:40.750Z,100114.41
2023-05-10T14:35:09.034Z,100101.41
2023-05-10T14:37:38.594Z,100104.91
2023-05-10T14:40:07.597Z,100104.63
2023-05-10T14:42:34.976Z,100116.34
2023-05-10T14:45:02.242Z,100114.97
2023-05-10T14:47:30.088Z,100122.44
2023-05-10T14:49:57.350Z,100111.44
2023-05-10T14:52:24.709Z,100108.56
2023-05-10T14:54:54.984Z,100108.50
2023-05-10T14:57:22.221Z,100110.97
2023-05-10T14:59:49.372Z,100097.72
2023-05-10T15:02:17.348Z,100099.66
2023-05-10T15:04:45.014Z,100098.63
2023-05-10T15:07:15.369Z,100102.31
2023-05-10T15:09:42.836Z,100102.06
2023-05-10T15:12:10.105Z,100099.75
2023-05-10T15:14:37.745Z,100085.88
2023-05-10T15:17:07.354Z,100094.25
2023-05-10T15:19:34.596Z,100088.03
2023-05-10T15:22:01.905Z,100100.41
2023-05-10T15:24:30.008Z,100105.37
2023-05-10T15:27:01.086Z,100087.41
2023-05-10T15:29:32.581Z,100101.16
2023-05-10T15:32:02.790Z,100098.34
2023-05-10T15:34:31.262Z,100097.16
2023-05-10T15:37:00.525Z,100099.47
2023-05-10T15:39:27.758Z,100101.63
2023-05-10T15:41:54.901Z,100100.41
2023-05-10T15:44:25.387Z,100099.84
2023-05-10T15:46:53.641Z,100088.44
2023-05-10T15:49:20.801Z,100096.25
2023-05-10T15:51:48.641Z,100093.12
2023-05-10T15:54:15.895Z,100093.66
2023-05-10T15:56:43.083Z,100087.78
2023-05-10T15:59:11.920Z,100095.63
2023-05-10T16:01:39.199Z,100093.41
2023-05-10T16:04:06.634Z,100096.72
2023-05-10T16:06:35.308Z,100091.19
2023-05-10T16:09:02.631Z,100093.41
2023-05-10T16:11:30.235Z,100096.38
2023-05-10T16:13:57.608Z,100099.16
2023-05-10T16:16:25.004Z,100103.38
2023-05-10T16:18:55.194Z,100092.56
2023-05-10T16:21:23.804Z,100096.38
2023-05-10T16:23:51.014Z,100102.75
2023-05-10T16:26:18.449Z,100099.41
2023-05-10T16:28:45.621Z,100098.75
2023-05-10T16:31:13.026Z,100099.50
2023-05-10T16:33:40.612Z,100104.19
2023-05-10T16:36:07.912Z,100099.81
2023-05-10T16:38:35.104Z,100096.12
2023-05-10T16:41:03.644Z,100102.44
2023-05-10T16:43:32.513Z,100107.16
2023-05-10T16:45:59.774Z,100106.75
2023-05-10T16:48:27.326Z,100101.16
2023-05-10T16:50:54.756Z,100109.72
2023-05-10T16:53:22.380Z,100110.38
2023-05-10T16:55:50.178Z,100106.19
2023-05-10T16:58:17.321Z,100114.78
2023-05-10T17:00:44.548Z,100114.22
2023-05-10T17:03:12.586Z,100117.88
2023-05-10T17:05:40.669Z,100110.12
2023-05-10T17:08:09.187Z,100109.31
2023-05-10T17:10:40.268Z,100104.47
2023-05-10T17:13:10.990Z,100106.16
2023-05-10T17:15:39.519Z,100116.28
2023-05-10T17:18:07.718Z,100123.91
2023-05-10T17:20:35.287Z,100119.22
2023-05-10T17:23:03.489Z,100122.09
2023-05-10T17:25:30.857Z,100129.31
2023-05-10T17:27:58.142Z,100121.00
2023-05-10T17:30:28.242Z,100127.88
2023-05-10T17:32:55.566Z,100125.69
2023-05-10T17:35:22.982Z,100128.56
2023-05-10T17:37:50.509Z,100120.44
2023-05-10T17:40:18.386Z,100126.13
2023-05-10T17:42:46.077Z,100128.75
2023-05-10T17:45:13.951Z,100132.63
2023-05-10T17:47:41.246Z,100132.37
2023-05-10T17:50:10.250Z,100138.41
2023-05-10T17:52:37.961Z,100135.41
2023-05-10T17:55:07.541Z,100132.13
2023-05-10T17:57:38.181Z,100135.97
2023-05-10T18:00:10.278Z,100142.81
2023-05-10T18:02:37.841Z,100146.19
2023-05-10T18:05:07.484Z,100144.00
2023-05-10T18:07:52.830Z,100146.19
2023-05-10T18:10:28.372Z,100147.19
2023-05-10T18:12:58.465Z,100151.19
2023-05-10T18:15:27.896Z,100149.16
2023-05-10T18:17:56.823Z,100149.34
2023-05-10T18:20:24.362Z,100150.69
2023-05-10T18:22:55.067Z,100156.69
2023-05-10T18:25:22.991Z,100158.66
2023-05-10T18:27:50.991Z,100160.16
2023-05-10T18:30:18.755Z,100169.97
2023-05-10T18:32:46.371Z,100163.13
2023-05-10T18:35:19.482Z,100166.63
2023-05-10T18:37:48.784Z,100170.47
2023-05-10T18:40:17.300Z,100171.09
2023-05-10T18:42:46.723Z,100175.41
2023-05-10T18:45:15.217Z,100187.09
2023-05-10T18:47:43.179Z,100187.69
2023-05-10T18:50:11.102Z,100185.34
2023-05-10T18:52:38.867Z,100177.97
2023-05-10T18:55:06.887Z,100185.91
2023-05-10T18:57:41.691Z,100188.91
2023-05-10T19:00:11.521Z,100186.53
2023-05-10T19:02:40.148Z,100194.16
2023-05-10T19:05:08.759Z,100193.53
2023-05-10T19:07:38.799Z,100193.97
2023-05-10T19:10:07.647Z,100195.75
2023-05-10T19:12:37.701Z,100202.06
2023-05-10T19:15:05.964Z,100207.69
2023-05-10T19:17:34.778Z,100200.72
2023-05-10T19:20:06.935Z,100200.72
2023-05-10T19:22:47.243Z,100210.84
2023-05-10T19:25:29.508Z,100212.41
2023-05-10T19:28:02.117Z,100202.44
2023-05-10T19:30:31.949Z,100204.00
2023-05-10T19:32:59.548Z,100213.19
2023-05-10T19:35:27.828Z,100200.50
2023-05-10T19:37:56.164Z,100207.88
2023-05-10T19:40:23.628Z,100205.75
2023-05-10T19:42:51.507Z,100204.69
2023-05-10T19:45:19.825Z,100206.44
2023-05-10T19:47:48.119Z,100206.69
2023-05-10T19:50:19.221Z,100200.16
2023-05-10T19:52:47.324Z,100195.84
2023-05-10T19:55:20.134Z,100206.25
2023-05-10T19:57:49.035Z,100203.50
2023-05-10T20:00:16.848Z,100202.13
2023-05-10T20:02:44.435Z,100207.44
2023-05-10T20:05:12.049Z,100199.03
2023-05-10T20:07:43.450Z,100200.75
2023-05-10T20:10:13.788Z,100201.84
2023-05-10T20:12:41.278Z,100205.78
2023-05-10T20:15:09.229Z,100209.31
2023-05-10T20:17:36.980Z,100204.94
2023-05-10T20:20:05.132Z,100207.16
2023-05-10T20:22:32.810Z,100208.66
2023-05-10T20:25:00.671Z,100206.00
2023-05-10T20:27:28.204Z,100203.72
2023-05-10T20:29:56.637Z,100206.97
2023-05-10T20:32:24.447Z,100205.91
2023-05-10T20:34:51.953Z,100206.97
2023-05-10T20:37:19.786Z,100210.13
2023-05-10T20:39:49.807Z,100210.00
2023-05-10T20:42:17.696Z,100200.88
2023-05-10T20:44:44.944Z,100205.06
2023-05-10T20:47:16.965Z,100207.13
2023-05-10T20:49:44.255Z,100211.97
2023-05-10T20:52:11.860Z,100203.37
2023-05-10T20:54:39.477Z,100205.97
2023-05-10T20:57:06.829Z,100214.22
2023-05-10T20:59:34.237Z,100208.78
2023-05-10T21:02:01.828Z,100208.09
2023-05-10T21:04:29.382Z,100205.97
2023-05-10T21:06:57.118Z,100205.75
2023-05-10T21:09:24.838Z,100205.31
2023-05-10T21:11:52.372Z,100201.12
2023-05-10T21:14:20.704Z,100196.84
2023-05-10T21:16:48.234Z,100194.06
2023-05-10T21:19:17.389Z,100199.22
2023-05-10T21:21:44.664Z,100201.50
2023-05-10T21:24:12.577Z,100199.66
2023-05-10T21:26:42.524Z,100202.41
2023-05-10T21:29:09.712Z,100207.34
2023-05-10T21:31:37.622Z,100195.56
2023-05-10T21:34:04.800Z,100198.22
2023-05-10T21:36:32.154Z,100209.81
2023-05-10T21:38:59.829Z,100210.84
2023-05-10T21:41:27.065Z,100208.78
2023-05-10T21:43:54.220Z,100210.28
2023-05-10T21:46:21.755Z,100209.87
2023-05-10T21:48:48.872Z,100212.06
2023-05-10T21:51:16.072Z,100212.28
2023-05-10T21:53:43.709Z,100216.91
2023-05-10T21:56:10.958Z,100220.56
2023-05-10T21:58:38.081Z,100213.19
2023-05-10T22:01:05.740Z,100221.59
2023-05-10T22:03:33.217Z,100217.16
2023-05-10T22:06:00.482Z,100217.75
2023-05-10T22:08:27.644Z,100223.25
2023-05-10T22:10:55.377Z,100224.34
2023-05-10T22:13:22.514Z,100229.66
2023-05-10T22:15:49.814Z,100225.47
2023-05-10T22:18:17.553Z,100222.44
2023-05-10T22:20:46.550Z,100227.66
2023-05-10T22:23:14.057Z,100224.84
2023-05-10T22:25:41.436Z,100223.84
2023-05-10T22:28:09.348Z,100224.88
2023-05-10T22:30:37.671Z,100226.50
2023-05-10T22:33:05.334Z,100225.41
2023-05-10T22:35:32.654Z,100216.97
2023-05-10T22:37:59.977Z,100229.09
2023-05-10T22:40:27.511Z,100218.62
2023-05-10T22:42:54.846Z,100227.56
2023-05-10T22:45:22.110Z,100229.22
2023-05-10T22:47:49.632Z,100230.63
2023-05-10T22:50:17.204Z,100228.16
2023-05-10T22:52:44.649Z,100233.87
2023-05-10T22:55:12.146Z,100227.59
2023-05-10T22:57:39.366Z,100233.28
2023-05-10T23:00:07.479Z,100226.91
2023-05-10T23:02:35.118Z,100234.31
2023-05-10T23:05:02.523Z,100228.16
2023-05-10T23:07:29.899Z,100231.50
2023-05-10T23:09:57.380Z,100232.56
2023-05-10T23:12:25.288Z,100230.22
2023-05-10T23:14:52.585Z,100230.63
2023-05-10T23:17:20.014Z,100232.94
2023-05-10T23:19:47.302Z,100229.88
2023-05-10T23:22:14.504Z,100228.62
2023-05-10T23:24:42.269Z,100222.38
2023-05-10T23:27:09.415Z,100226.53
2023-05-10T23:29:36.570Z,100231.00
2023-05-10T23:32:04.269Z,100227.66
2023-05-10T23:34:32.305Z,100228.47
2023-05-10T23:36:59.490Z,100228.06
2023-05-10T23:39:27.127Z,100227.09
2023-05-10T23:41:54.970Z,100224.06
2023-05-10T23:44:22.133Z,100223.19
2023-05-10T23:46:49.552Z,100236.03
2023-05-10T23:49:17.419Z,100233.97
2023-05-10T23:51:44.612Z,100231.72
2023-05-10T23:54:12.384Z,100228.25
2023-05-10T23:56:39.480Z,100236.91
2023-05-10T23:59:06.836Z,100240.84
